Portada
METAR-TAF:

METAR-TAF

Aeropuertos :

Kirsch Municipal Airport

Sturgis, Míchigan, Estados Unidos

latitud: 41-48-46N, longitud: 085-26-21W, altitud: 282 m

Observación

El informe se hizo hace 20 minutos, a las 20:35 UTC
Viento calma
Temperatura 32°C
Humedad 52%
Presión 1024 hPa
Visibilidad: 16.1 km
Nubes dispersas a una altura de 4500 ft
Nubes dispersas a una altura de 7500 ft
Nubes dispersas a una altura de 8500 ft

METAR: KIRS 192035Z AUTO 00000KT 10SM SCT045 SCT075 SCT085 32/21 A3023 RMK AO2 T03200208

Hora: 16:55 (20:55 UTC)


TAF: falta

Observaciones y pronósticos meteorológicos de más de 4000 aeropuertos (mensajes METAR y TAF).

Los puntos amarillos y rojos representan las estaciones disponibles.

Ponga el ratón en el punto deseado para ver el nombre de la estación.

Haga clic para ver las observaciones y los pronósticos meteorológicos.

Para cambiar el mapa : haga clic en los botones verdes con una cruz de color negro para hacer un zoom, en el botón verde con un guión para alejar o en las flechas verdes para mapas adyacentes.


METAR-TAF: